Time;durP1;ratioP1;P1;durP2;ratioP2;P2;SDS_P1;SDS_P2;PMS_P1;PMS_P2;Temp;Humidity;BMP_temperature;BMP_pressure;BME280_temperature;BME280_humidity;BME280_pressure;Samples;Min_cycle;Max_cycle;Signal;HPM_P1;HPM_P2
2023/12/10 00:00:14;;;;;;;11.77;5.30;;;;;;;;;;5053837;28;20053;-91
2023/12/10 00:02:47;;;;;;;11.00;4.63;;;;;;;;;;5055368;28;20095;-91
2023/12/10 00:05:27;;;;;;;13.52;4.90;;;;;;;;;;5055084;28;20049;-91
2023/12/10 00:08:04;;;;;;;11.75;4.78;;;;;;;;;;5048455;28;20076;-92
2023/12/10 00:10:44;;;;;;;19.67;5.63;;;;;;;;;;5040593;28;20087;-91
2023/12/10 00:13:12;;;;;;;16.08;5.05;;;;;;;;;;5040445;28;20117;-89
2023/12/10 00:15:50;;;;;;;16.35;5.00;;;;;;;;;;5038115;28;20064;-90
2023/12/10 00:18:25;;;;;;;16.05;4.53;;;;;;;;;;5038611;28;20065;-90
2023/12/10 00:26:17;;;;;;;16.35;4.50;;;;;;;;;;6167569;22;20459;-90
2023/12/10 00:31:31;;;;;;;13.70;4.30;;;;;;;;;;5038322;28;20057;-90
2023/12/10 00:34:09;;;;;;;7.00;2.63;;;;;;;;;;5105845;28;20078;-90
2023/12/10 00:36:51;;;;;;;12.75;3.08;;;;;;;;;;5100136;28;20132;-90
2023/12/10 00:39:32;;;;;;;33.53;4.63;;;;;;;;;;5086885;28;20057;-91
2023/12/10 00:42:03;;;;;;;21.13;3.63;;;;;;;;;;5107816;28;20113;-92
2023/12/10 00:44:31;;;;;;;15.90;2.72;;;;;;;;;;5108232;28;20053;-92
2023/12/10 00:47:02;;;;;;;28.15;2.95;;;;;;;;;;5108335;28;20109;-91
2023/12/10 00:49:37;;;;;;;20.13;3.28;;;;;;;;;;5106705;28;20050;-92
2023/12/10 00:52:18;;;;;;;24.80;2.45;;;;;;;;;;5103527;28;20049;-92
2023/12/10 00:55:00;;;;;;;25.45;2.83;;;;;;;;;;5107897;28;20072;-91
2023/12/10 00:57:36;;;;;;;;;;;;;;;;;;5105866;28;20068;-92
2023/12/10 01:00:08;;;;;;;25.75;3.55;;;;;;;;;;5106104;28;19930;-91
2023/12/10 01:02:52;;;;;;;34.92;4.35;;;;;;;;;;5101095;28;20056;-91
2023/12/10 01:05:23;;;;;;;45.63;4.47;;;;;;;;;;5044829;28;20053;-91
2023/12/10 01:08:04;;;;;;;10.45;2.53;;;;;;;;;;5098787;28;20474;-91
2023/12/10 01:10:35;;;;;;;25.42;3.05;;;;;;;;;;5107614;28;20204;-91
2023/12/10 01:13:03;;;;;;;15.85;3.10;;;;;;;;;;5107753;28;20033;-91
2023/12/10 01:15:33;;;;;;;14.60;2.40;;;;;;;;;;5106416;28;20050;-92
2023/12/10 01:18:04;;;;;;;21.67;3.00;;;;;;;;;;5106020;28;20052;-91
2023/12/10 01:20:33;;;;;;;17.60;3.08;;;;;;;;;;5104898;28;20084;-90
2023/12/10 01:23:15;;;;;;;25.92;3.90;;;;;;;;;;5099855;28;20046;-90
2023/12/10 01:25:54;;;;;;;28.40;3.80;;;;;;;;;;5104182;28;20045;-92
2023/12/10 01:28:35;;;;;;;24.70;2.63;;;;;;;;;;5100286;28;20161;-92
2023/12/10 01:31:16;;;;;;;27.02;2.83;;;;;;;;;;5122442;28;20079;-92
2023/12/10 01:33:47;;;;;;;26.63;3.00;;;;;;;;;;5124898;28;20128;-91
2023/12/10 01:36:38;;;;;;;18.63;3.08;;;;;;;;;;5121555;28;20059;-90
2023/12/10 01:39:07;;;;;;;25.55;2.97;;;;;;;;;;5123265;28;20044;-91
2023/12/10 01:41:38;;;;;;;23.30;3.20;;;;;;;;;;5122812;28;20047;-91
2023/12/10 01:44:18;;;;;;;19.90;2.80;;;;;;;;;;5124618;28;20052;-91
2023/12/10 01:46:54;;;;;;;24.38;2.85;;;;;;;;;;5123656;28;20052;-91
2023/12/10 01:49:36;;;;;;;24.70;3.10;;;;;;;;;;5123309;28;20062;-92
2023/12/10 01:52:09;;;;;;;25.92;3.10;;;;;;;;;;5124483;28;20047;-90
2023/12/10 01:54:51;;;;;;;23.88;3.00;;;;;;;;;;5126195;28;20036;-92
2023/12/10 01:57:35;;;;;;;23.00;3.20;;;;;;;;;;5126261;28;20035;-91
2023/12/10 02:00:08;;;;;;;13.73;1.90;;;;;;;;;;5124566;28;20044;-92
2023/12/10 02:02:46;;;;;;;23.73;2.58;;;;;;;;;;5125398;28;20051;-91
2023/12/10 02:05:18;;;;;;;15.63;3.17;;;;;;;;;;5124359;28;20053;-92
2023/12/10 02:08:05;;;;;;;25.83;3.00;;;;;;;;;;5126339;28;20040;-92
2023/12/10 02:10:34;;;;;;;22.65;2.97;;;;;;;;;;5125706;28;20047;-92
2023/12/10 02:13:09;;;;;;;16.38;2.45;;;;;;;;;;5125693;28;20041;-91
2023/12/10 02:15:47;;;;;;;23.17;3.58;;;;;;;;;;5124010;28;20070;-92
2023/12/10 02:18:20;;;;;;;26.48;3.25;;;;;;;;;;5127719;28;20051;-92
2023/12/10 02:21:01;;;;;;;29.73;2.58;;;;;;;;;;5125060;28;20100;-91
2023/12/10 02:23:55;;;;;;;26.50;3.90;;;;;;;;;;5221729;22;20042;-92
2023/12/10 02:26:39;;;;;;;15.93;2.45;;;;;;;;;;5026663;28;20053;-92
2023/12/10 02:29:16;;;;;;;14.88;2.42;;;;;;;;;;5025798;28;20049;-91
2023/12/10 02:31:48;;;;;;;15.98;2.53;;;;;;;;;;5024258;28;20058;-90
2023/12/10 02:34:22;;;;;;;28.40;2.92;;;;;;;;;;5025154;28;20084;-91
2023/12/10 02:36:53;;;;;;;43.45;3.22;;;;;;;;;;5025129;28;20081;-91
2023/12/10 02:39:34;;;;;;;17.85;2.97;;;;;;;;;;5025799;28;20055;-92
2023/12/10 02:42:04;;;;;;;28.45;3.75;;;;;;;;;;5023102;28;20071;-91
2023/12/10 02:44:42;;;;;;;25.85;2.53;;;;;;;;;;5026379;28;20117;-91
2023/12/10 02:47:23;;;;;;;32.67;3.28;;;;;;;;;;5026479;28;20140;-91
2023/12/10 02:49:53;;;;;;;30.17;3.60;;;;;;;;;;5026613;28;20118;-92
2023/12/10 02:52:23;;;;;;;16.48;2.30;;;;;;;;;;5025144;28;20103;-92
2023/12/10 02:54:51;;;;;;;20.63;2.53;;;;;;;;;;5024363;28;20079;-90
2023/12/10 02:57:51;;;;;;;13.25;2.55;;;;;;;;;;5024929;28;20044;-90
2023/12/10 03:00:24;;;;;;;16.70;2.42;;;;;;;;;;5024580;28;20167;-92
2023/12/10 03:02:58;;;;;;;23.58;3.25;;;;;;;;;;5024766;28;20053;-90
2023/12/10 03:05:31;;;;;;;22.48;3.42;;;;;;;;;;5039776;28;20048;-91
2023/12/10 03:08:00;;;;;;;18.83;2.70;;;;;;;;;;5023815;28;20046;-90
2023/12/10 03:10:41;;;;;;;24.15;2.53;;;;;;;;;;5024362;28;20106;-91
2023/12/10 03:13:12;;;;;;;30.95;2.30;;;;;;;;;;5024645;28;20108;-92
2023/12/10 03:15:50;;;;;;;19.80;3.25;;;;;;;;;;5026396;28;20048;-91
2023/12/10 03:18:24;;;;;;;23.20;3.10;;;;;;;;;;5027139;28;20064;-92
2023/12/10 03:21:05;;;;;;;14.57;2.33;;;;;;;;;;5038494;28;20037;-92
2023/12/10 03:23:42;;;;;;;17.20;3.03;;;;;;;;;;5024134;28;20067;-91
2023/12/10 03:26:16;;;;;;;20.95;2.58;;;;;;;;;;5025356;28;20068;-91
2023/12/10 03:28:43;;;;;;;22.05;2.40;;;;;;;;;;5042286;28;20127;-91
2023/12/10 03:31:12;;;;;;;17.92;2.03;;;;;;;;;;5030980;28;20047;-91
2023/12/10 03:33:50;;;;;;;10.65;1.65;;;;;;;;;;5032227;28;20038;-92
2023/12/10 03:36:21;;;;;;;9.55;2.17;;;;;;;;;;5032136;28;20051;-92
2023/12/10 03:38:51;;;;;;;23.85;2.63;;;;;;;;;;5049111;28;20101;-92
2023/12/10 03:41:19;;;;;;;15.23;1.35;;;;;;;;;;5032114;28;20109;-92
2023/12/10 03:43:50;;;;;;;31.00;3.03;;;;;;;;;;5050437;27;20042;-92
2023/12/10 03:46:17;;;;;;;23.50;2.50;;;;;;;;;;5052115;28;20073;-91
2023/12/10 03:48:51;;;;;;;8.23;2.22;;;;;;;;;;5035064;28;20037;-92
2023/12/10 03:51:19;;;;;;;21.73;2.58;;;;;;;;;;5029707;28;20050;-91
2023/12/10 03:53:47;;;;;;;16.33;2.80;;;;;;;;;;5045289;28;20092;-92
2023/12/10 03:56:23;;;;;;;26.75;2.22;;;;;;;;;;5044616;28;20053;-92
2023/12/10 03:58:51;;;;;;;15.40;1.55;;;;;;;;;;5027659;28;20060;-92
2023/12/10 04:01:21;;;;;;;12.95;1.92;;;;;;;;;;5028019;28;20050;-93
2023/12/10 04:03:54;;;;;;;19.60;1.60;;;;;;;;;;5027376;28;20056;-93
2023/12/10 04:06:23;;;;;;;8.93;1.75;;;;;;;;;;5028018;28;20079;-93
2023/12/10 04:08:51;;;;;;;13.10;1.70;;;;;;;;;;5027419;28;20067;-93
2023/12/10 04:11:24;;;;;;;25.20;2.47;;;;;;;;;;5027197;28;20095;-92
2023/12/10 04:13:52;;;;;;;30.40;2.72;;;;;;;;;;5027594;28;20061;-93
2023/12/10 04:16:26;;;;;;;15.82;1.80;;;;;;;;;;5025967;28;20065;-92
2023/12/10 04:18:54;;;;;;;19.10;1.67;;;;;;;;;;5043870;28;20053;-92
2023/12/10 04:21:24;;;;;;;13.73;2.10;;;;;;;;;;5025965;28;20053;-93
2023/12/10 04:23:53;;;;;;;11.50;2.22;;;;;;;;;;5010160;28;20065;-93
2023/12/10 04:26:24;;;;;;;11.82;1.02;;;;;;;;;;5028253;28;20033;-92
2023/12/10 04:28:52;;;;;;;15.55;2.08;;;;;;;;;;5027729;28;20050;-93
2023/12/10 04:31:20;;;;;;;12.60;1.88;;;;;;;;;;5026891;28;20053;-93
2023/12/10 04:33:50;;;;;;;17.90;2.95;;;;;;;;;;5027218;28;20122;-93
2023/12/10 04:36:23;;;;;;;15.48;1.35;;;;;;;;;;5030791;28;20049;-92
2023/12/10 04:38:53;;;;;;;15.10;1.95;;;;;;;;;;5027514;28;20049;-93
2023/12/10 04:41:22;;;;;;;15.32;2.00;;;;;;;;;;5027233;28;20421;-93
2023/12/10 04:43:51;;;;;;;18.00;1.70;;;;;;;;;;5047561;28;20051;-91
2023/12/10 04:46:29;;;;;;;9.63;1.48;;;;;;;;;;5029375;28;20574;-92
2023/12/10 04:49:09;;;;;;;8.43;2.03;;;;;;;;;;5029455;28;20053;-93
2023/12/10 04:51:39;;;;;;;13.90;1.42;;;;;;;;;;5025344;28;20148;-92
2023/12/10 04:54:09;;;;;;;11.60;2.20;;;;;;;;;;5025519;28;20116;-91
2023/12/10 04:56:41;;;;;;;17.88;1.83;;;;;;;;;;5042709;28;20050;-93
2023/12/10 04:59:12;;;;;;;12.60;1.13;;;;;;;;;;5026083;28;20060;-92
2023/12/10 05:01:43;;;;;;;21.27;1.90;;;;;;;;;;5025418;28;20054;-93
2023/12/10 05:04:14;;;;;;;17.08;1.90;;;;;;;;;;5042713;28;20083;-92
2023/12/10 05:06:44;;;;;;;12.48;1.27;;;;;;;;;;5030546;28;20056;-92
2023/12/10 05:09:14;;;;;;;15.98;1.73;;;;;;;;;;5026244;28;20079;-92
2023/12/10 05:11:41;;;;;;;14.85;2.47;;;;;;;;;;5025496;28;20560;-92
2023/12/10 05:14:15;;;;;;;8.77;1.88;;;;;;;;;;5025747;28;20068;-91
2023/12/10 05:16:46;;;;;;;12.20;2.08;;;;;;;;;;5042712;28;20082;-92
2023/12/10 05:19:19;;;;;;;12.80;2.15;;;;;;;;;;5024926;28;20076;-93
2023/12/10 05:21:48;;;;;;;14.20;1.73;;;;;;;;;;5040741;28;20067;-92
2023/12/10 05:24:17;;;;;;;13.70;1.85;;;;;;;;;;5021227;28;20481;-92
2023/12/10 05:26:52;;;;;;;21.02;2.53;;;;;;;;;;5021979;28;20046;-93
2023/12/10 05:29:26;;;;;;;10.63;1.92;;;;;;;;;;5022442;28;20050;-92
2023/12/10 05:32:01;;;;;;;13.00;1.17;;;;;;;;;;5022573;28;20057;-91
2023/12/10 05:34:35;;;;;;;19.55;1.92;;;;;;;;;;5028061;28;20060;-93
2023/12/10 05:37:03;;;;;;;13.85;1.52;;;;;;;;;;5027063;28;20110;-92
2023/12/10 05:39:39;;;;;;;12.85;1.30;;;;;;;;;;5021769;28;20037;-92
2023/12/10 05:42:07;;;;;;;9.40;1.45;;;;;;;;;;5020999;28;20050;-92
2023/12/10 05:44:37;;;;;;;10.65;1.50;;;;;;;;;;5023895;28;20050;-92
2023/12/10 05:47:18;;;;;;;13.48;2.13;;;;;;;;;;5022698;28;20083;-93
2023/12/10 05:49:49;;;;;;;12.15;2.17;;;;;;;;;;5023022;28;20053;-93
2023/12/10 05:52:16;;;;;;;10.75;1.67;;;;;;;;;;5022145;28;20075;-93
2023/12/10 05:54:59;;;;;;;14.18;1.85;;;;;;;;;;5022499;28;20107;-92
2023/12/10 05:57:40;;;;;;;6.28;1.13;;;;;;;;;;5020975;28;20118;-92
2023/12/10 06:00:08;;;;;;;7.70;2.00;;;;;;;;;;5020750;28;20050;-92
2023/12/10 06:02:37;;;;;;;21.75;1.23;;;;;;;;;;5020704;28;20061;-92
2023/12/10 06:05:08;;;;;;;13.57;1.50;;;;;;;;;;5021421;28;20060;-91
2023/12/10 06:07:38;;;;;;;5.65;1.40;;;;;;;;;;5026173;28;20049;-92
2023/12/10 06:10:08;;;;;;;9.20;1.55;;;;;;;;;;5021343;28;20073;-92
2023/12/10 06:12:41;;;;;;;10.93;1.70;;;;;;;;;;5020897;28;20056;-89
2023/12/10 06:15:09;;;;;;;9.25;1.48;;;;;;;;;;5021046;28;20064;-92
2023/12/10 06:17:37;;;;;;;18.40;2.38;;;;;;;;;;5020157;28;20072;-92
2023/12/10 06:20:09;;;;;;;7.63;1.10;;;;;;;;;;5020734;28;20056;-91
2023/12/10 06:22:39;;;;;;;8.85;1.90;;;;;;;;;;5023066;28;20060;-93
2023/12/10 06:25:20;;;;;;;6.13;1.50;;;;;;;;;;5029637;27;20076;-92
2023/12/10 06:27:50;;;;;;;9.85;1.77;;;;;;;;;;5036103;28;20421;-92
2023/12/10 06:33:15;;;;;;;6.50;1.60;;;;;;;;;;5042128;27;20045;-88
2023/12/10 06:35:58;;;;;;;11.57;2.13;;;;;;;;;;5043434;28;20517;-92
2023/12/10 06:38:33;;;;;;;9.48;1.80;;;;;;;;;;5039598;28;20049;-92
2023/12/10 06:41:14;;;;;;;5.30;1.25;;;;;;;;;;5038878;28;20029;-90
2023/12/10 06:43:44;;;;;;;10.13;1.92;;;;;;;;;;5040283;28;20061;-92
2023/12/10 06:46:17;;;;;;;12.43;1.90;;;;;;;;;;5039104;28;20050;-92
2023/12/10 06:48:45;;;;;;;9.00;1.40;;;;;;;;;;5039612;28;20397;-93
2023/12/10 06:51:14;;;;;;;11.73;1.50;;;;;;;;;;5040335;28;20049;-92
2023/12/10 06:53:46;;;;;;;8.85;2.25;;;;;;;;;;5040080;28;20065;-93
2023/12/10 06:56:16;;;;;;;14.27;1.67;;;;;;;;;;5039379;28;20079;-93
2023/12/10 06:58:49;;;;;;;9.25;1.38;;;;;;;;;;5040452;28;20049;-91
2023/12/10 07:01:21;;;;;;;13.52;1.35;;;;;;;;;;5040520;28;20050;-92
2023/12/10 07:03:54;;;;;;;4.95;1.23;;;;;;;;;;5039982;28;20030;-93
2023/12/10 07:06:22;;;;;;;15.27;1.40;;;;;;;;;;5041769;28;20049;-93
2023/12/10 07:08:51;;;;;;;9.15;1.67;;;;;;;;;;5041269;28;20060;-92
2023/12/10 07:11:20;;;;;;;8.25;1.48;;;;;;;;;;5043101;28;20076;-93
2023/12/10 07:13:49;;;;;;;8.88;1.48;;;;;;;;;;5041699;28;20050;-93
2023/12/10 07:16:17;;;;;;;9.15;1.35;;;;;;;;;;5045507;28;20033;-93
2023/12/10 07:18:48;;;;;;;8.50;1.63;;;;;;;;;;5042604;27;20105;-93
2023/12/10 07:21:17;;;;;;;4.53;1.42;;;;;;;;;;5043463;28;20053;-92
2023/12/10 07:23:52;;;;;;;18.33;2.35;;;;;;;;;;5044577;28;20059;-91
2023/12/10 07:26:24;;;;;;;16.50;3.15;;;;;;;;;;5042445;28;20049;-92
2023/12/10 07:28:54;;;;;;;8.98;1.55;;;;;;;;;;5041755;28;20241;-92
2023/12/10 07:31:22;;;;;;;9.25;1.58;;;;;;;;;;5043019;28;20400;-92
2023/12/10 07:33:52;;;;;;;11.88;1.42;;;;;;;;;;5043590;28;20106;-92
2023/12/10 07:36:22;;;;;;;12.75;2.20;;;;;;;;;;5044222;28;20053;-92
2023/12/10 07:38:51;;;;;;;7.40;0.98;;;;;;;;;;5044456;28;20045;-92
2023/12/10 07:41:21;;;;;;;8.75;1.38;;;;;;;;;;5044331;28;20054;-91
2023/12/10 07:43:49;;;;;;;9.95;1.30;;;;;;;;;;5045526;28;20068;-91
2023/12/10 07:46:20;;;;;;;10.50;1.30;;;;;;;;;;5046438;28;20057;-92
2023/12/10 07:49:00;;;;;;;6.40;1.15;;;;;;;;;;5045525;27;20079;-92
2023/12/10 07:51:29;;;;;;;8.18;2.65;;;;;;;;;;5043971;28;20061;-93
2023/12/10 07:54:03;;;;;;;8.23;1.45;;;;;;;;;;5046119;28;20117;-90
2023/12/10 07:56:34;;;;;;;7.18;1.60;;;;;;;;;;5046541;28;20049;-92
2023/12/10 07:59:02;;;;;;;5.50;1.00;;;;;;;;;;5043364;28;20110;-91
2023/12/10 08:01:31;;;;;;;4.82;0.90;;;;;;;;;;5044400;27;20092;-92
2023/12/10 08:04:00;;;;;;;5.55;0.75;;;;;;;;;;5043088;28;20078;-92
2023/12/10 08:06:31;;;;;;;7.57;1.73;;;;;;;;;;5044786;27;20121;-91
2023/12/10 08:09:04;;;;;;;3.03;0.73;;;;;;;;;;5045494;28;20041;-93
2023/12/10 08:11:37;;;;;;;13.05;1.67;;;;;;;;;;5043567;28;20094;-93
2023/12/10 08:14:09;;;;;;;4.93;1.40;;;;;;;;;;5042880;28;20407;-92
2023/12/10 08:16:36;;;;;;;2.42;0.40;;;;;;;;;;5043735;28;20065;-92
2023/12/10 08:19:05;;;;;;;4.07;1.08;;;;;;;;;;5043222;28;20049;-93
2023/12/10 08:21:43;;;;;;;2.13;0.95;;;;;;;;;;5042425;28;20049;-92
2023/12/10 08:24:11;;;;;;;9.02;1.10;;;;;;;;;;5043449;28;20037;-92
2023/12/10 08:26:41;;;;;;;5.55;0.85;;;;;;;;;;5044983;27;20171;-93
2023/12/10 08:29:11;;;;;;;1.10;0.52;;;;;;;;;;5046173;27;20077;-91
2023/12/10 08:31:42;;;;;;;4.50;1.08;;;;;;;;;;5042098;28;20105;-93
2023/12/10 08:34:12;;;;;;;1.30;0.50;;;;;;;;;;5040581;28;20434;-89
2023/12/10 08:36:54;;;;;;;5.60;0.85;;;;;;;;;;5040599;28;20049;-90
2023/12/10 08:39:45;;;;;;;2.17;0.77;;;;;;;;;;5102932;22;20090;-90
2023/12/10 08:42:42;;;;;;;6.47;0.70;;;;;;;;;;5052335;28;20134;-90
2023/12/10 08:45:24;;;;;;;3.20;0.65;;;;;;;;;;5022539;28;20117;-90
2023/12/10 08:48:04;;;;;;;5.30;0.90;;;;;;;;;;5025067;28;20078;-91
2023/12/10 08:50:44;;;;;;;1.73;0.88;;;;;;;;;;5036649;28;20057;-91
2023/12/10 08:53:25;;;;;;;4.35;0.80;;;;;;;;;;5032912;28;20061;-91
2023/12/10 08:55:54;;;;;;;4.18;0.70;;;;;;;;;;5036459;28;20535;-91
2023/12/10 08:58:38;;;;;;;7.72;1.20;;;;;;;;;;5036123;28;20060;-91
2023/12/10 09:01:19;;;;;;;4.22;1.00;;;;;;;;;;5021811;28;20065;-90
2023/12/10 09:03:50;;;;;;;12.23;1.15;;;;;;;;;;5036516;28;20114;-90
2023/12/10 09:06:18;;;;;;;9.27;0.85;;;;;;;;;;5035637;28;20046;-91
2023/12/10 09:08:59;;;;;;;2.50;0.73;;;;;;;;;;5036869;28;20049;-90
2023/12/10 09:11:43;;;;;;;4.05;0.60;;;;;;;;;;5023273;28;20059;-90
2023/12/10 09:14:24;;;;;;;8.80;0.80;;;;;;;;;;5040720;28;20049;-89
2023/12/10 09:17:06;;;;;;;12.10;1.27;;;;;;;;;;5040350;28;20041;-91
2023/12/10 09:19:49;;;;;;;0.93;0.60;;;;;;;;;;5044140;28;20233;-91
2023/12/10 09:22:38;;;;;;;9.95;0.98;;;;;;;;;;5038397;28;20329;-91
2023/12/10 09:25:20;;;;;;;2.78;0.65;;;;;;;;;;5040685;28;20432;-89
2023/12/10 09:28:03;;;;;;;;;;;;;;;;;;5040569;28;20060;-91
2023/12/10 09:30:54;;;;;;;4.60;0.68;;;;;;;;;;5099387;28;19946;-91
2023/12/10 09:33:38;;;;;;;3.88;0.88;;;;;;;;;;5241473;22;20186;-90
2023/12/10 09:36:19;;;;;;;7.38;0.57;;;;;;;;;;5100970;28;20314;-90
2023/12/10 09:39:00;;;;;;;1.05;0.50;;;;;;;;;;5101270;28;20046;-90
2023/12/10 09:41:31;;;;;;;3.28;0.52;;;;;;;;;;5101118;28;20059;-90
2023/12/10 09:53:36;;;;;;;6.70;0.87;;;;;;;;;;5532278;22;20371;-90
2023/12/10 09:56:27;;;;;;;;;;;;;;;;;;;;;
2023/12/10 09:59:18;;;;;;;2.97;0.73;;;;;;;;;;5127058;28;20090;-89
2023/12/10 10:02:04;;;;;;;4.80;0.95;;;;;;;;;;5157264;22;20079;-91
2023/12/10 10:04:48;;;;;;;2.72;1.02;;;;;;;;;;5120253;28;20058;-91
2023/12/10 10:07:33;;;;;;;6.75;0.70;;;;;;;;;;5109051;28;20150;-89
2023/12/10 10:10:19;;;;;;;2.70;1.20;;;;;;;;;;5114628;28;20050;-91
2023/12/10 10:13:02;;;;;;;7.60;1.10;;;;;;;;;;5117338;28;20506;-90
2023/12/10 10:15:39;;;;;;;6.25;1.90;;;;;;;;;;5103826;28;20051;-91
2023/12/10 10:18:29;;;;;;;9.00;2.08;;;;;;;;;;5120214;28;20051;-91
2023/12/10 10:21:14;;;;;;;13.35;0.85;;;;;;;;;;5008359;28;20450;-90
2023/12/10 10:23:56;;;;;;;6.00;0.88;;;;;;;;;;4998243;28;20065;-90
2023/12/10 10:26:45;;;;;;;2.53;1.08;;;;;;;;;;5011199;28;20057;-90
2023/12/10 10:29:29;;;;;;;5.45;1.10;;;;;;;;;;5008690;28;20046;-90
2023/12/10 10:32:18;;;;;;;1.92;1.15;;;;;;;;;;5011379;28;20082;-90
2023/12/10 10:35:06;;;;;;;4.15;1.02;;;;;;;;;;5010631;28;20077;-90
2023/12/10 10:37:55;;;;;;;7.15;1.02;;;;;;;;;;4998304;28;20042;-90
2023/12/10 10:40:39;;;;;;;4.50;1.40;;;;;;;;;;5009922;28;20034;-90
2023/12/10 10:43:13;;;;;;;2.58;0.47;;;;;;;;;;5011329;28;20112;-90
2023/12/10 10:45:54;;;;;;;4.93;0.65;;;;;;;;;;5018329;28;20058;-90
2023/12/10 10:48:48;;;;;;;;;;;;;;;;;;;;;
2023/12/10 10:51:28;;;;;;;3.17;0.47;;;;;;;;;;4997458;28;20119;-90
2023/12/10 10:54:10;;;;;;;3.22;0.52;;;;;;;;;;5012095;28;20142;-91
2023/12/10 10:56:53;;;;;;;5.43;0.70;;;;;;;;;;4998791;28;20331;-91
2023/12/10 10:59:36;;;;;;;5.85;0.63;;;;;;;;;;5003525;28;20485;-90
2023/12/10 11:02:20;;;;;;;7.03;0.50;;;;;;;;;;5010502;28;20050;-90
2023/12/10 11:05:08;;;;;;;6.03;0.93;;;;;;;;;;4997552;28;20084;-90
2023/12/10 11:07:51;;;;;;;4.00;0.85;;;;;;;;;;4980442;28;20046;-90
2023/12/10 11:10:33;;;;;;;1.90;0.60;;;;;;;;;;5010622;28;20043;-90
2023/12/10 11:13:14;;;;;;;3.95;0.70;;;;;;;;;;5011854;28;20123;-90
2023/12/10 11:16:00;;;;;;;1.38;0.35;;;;;;;;;;5003078;28;20054;-91
2023/12/10 11:18:56;;;;;;;0.35;0.25;;;;;;;;;;4973633;28;20062;-90
2023/12/10 11:21:40;;;;;;;2.35;0.73;;;;;;;;;;5007834;28;20226;-91
2023/12/10 11:24:25;;;;;;;3.17;0.40;;;;;;;;;;5062733;22;20053;-90
2023/12/10 11:27:14;;;;;;;3.13;0.65;;;;;;;;;;5004990;28;20060;-90
2023/12/10 11:29:55;;;;;;;12.90;0.77;;;;;;;;;;5011173;28;20054;-90
2023/12/10 11:32:40;;;;;;;2.88;0.38;;;;;;;;;;5015855;28;20050;-90
2023/12/10 11:35:22;;;;;;;5.50;0.65;;;;;;;;;;5042207;22;20058;-91
2023/12/10 11:38:10;;;;;;;4.25;0.55;;;;;;;;;;5007116;28;20042;-91
2023/12/10 11:40:52;;;;;;;8.70;0.95;;;;;;;;;;5020386;28;20041;-91
2023/12/10 11:43:42;;;;;;;6.15;0.60;;;;;;;;;;5018551;28;20027;-91
2023/12/10 11:46:22;;;;;;;5.85;1.13;;;;;;;;;;5021554;28;20046;-91
2023/12/10 11:49:06;;;;;;;0.35;0.30;;;;;;;;;;5018812;28;20026;-92
2023/12/10 11:51:54;;;;;;;4.47;0.70;;;;;;;;;;5018519;28;20208;-92
2023/12/10 11:54:44;;;;;;;3.65;0.52;;;;;;;;;;5002292;28;20061;-91
2023/12/10 11:57:28;;;;;;;3.88;1.58;;;;;;;;;;5012630;28;20317;-92
2023/12/10 12:00:12;;;;;;;1.75;0.43;;;;;;;;;;5013038;28;20276;-92
2023/12/10 12:02:53;;;;;;;14.68;2.50;;;;;;;;;;5013000;28;20425;-91
2023/12/10 12:05:37;;;;;;;1.65;0.50;;;;;;;;;;5001578;28;20049;-91
2023/12/10 12:08:19;;;;;;;2.70;0.85;;;;;;;;;;5017564;28;20030;-92
2023/12/10 12:11:00;;;;;;;1.58;0.43;;;;;;;;;;5019655;28;20054;-91
2023/12/10 12:13:33;;;;;;;2.83;0.75;;;;;;;;;;5003755;28;20050;-91
2023/12/10 12:16:19;;;;;;;6.53;1.10;;;;;;;;;;5016533;28;20080;-91
2023/12/10 12:18:56;;;;;;;6.13;0.82;;;;;;;;;;5019124;28;20050;-91
2023/12/10 12:21:37;;;;;;;6.32;0.70;;;;;;;;;;5013520;28;20054;-92
2023/12/10 12:24:09;;;;;;;7.63;0.95;;;;;;;;;;5017191;28;20103;-90
2023/12/10 12:26:43;;;;;;;8.65;1.27;;;;;;;;;;5014345;28;20050;-91
2023/12/10 12:29:33;;;;;;;5.32;1.35;;;;;;;;;;5014816;28;20057;-91
2023/12/10 12:32:17;;;;;;;10.30;1.40;;;;;;;;;;5012031;28;20090;-92
2023/12/10 12:34:59;;;;;;;7.63;1.42;;;;;;;;;;5015735;28;20102;-91
2023/12/10 12:37:41;;;;;;;7.18;1.50;;;;;;;;;;5013319;28;20102;-92
2023/12/10 12:40:23;;;;;;;6.72;1.15;;;;;;;;;;5012328;28;20106;-91
2023/12/10 12:42:57;;;;;;;6.90;0.85;;;;;;;;;;4999397;28;20062;-91
2023/12/10 12:45:42;;;;;;;9.95;1.30;;;;;;;;;;5011742;28;20111;-91
2023/12/10 12:48:22;;;;;;;13.63;1.60;;;;;;;;;;5010616;28;20062;-92
2023/12/10 12:51:04;;;;;;;13.57;2.05;;;;;;;;;;5012995;28;20076;-91
2023/12/10 12:53:50;;;;;;;6.85;1.10;;;;;;;;;;5015557;28;20050;-91
2023/12/10 12:56:44;;;;;;;4.55;1.27;;;;;;;;;;5012337;28;20394;-91
2023/12/10 12:59:17;;;;;;;11.73;2.35;;;;;;;;;;5015340;28;20042;-91
2023/12/10 13:01:58;;;;;;;12.15;2.58;;;;;;;;;;5011760;28;20062;-91
2023/12/10 13:04:41;;;;;;;12.02;1.85;;;;;;;;;;5014934;28;20110;-92
2023/12/10 13:07:42;;;;;;;10.10;1.88;;;;;;;;;;5009508;28;20042;-91
2023/12/10 13:10:17;;;;;;;10.60;1.77;;;;;;;;;;5024140;28;20042;-91
2023/12/10 13:13:03;;;;;;;14.98;1.63;;;;;;;;;;5019487;28;20064;-92
2023/12/10 13:15:45;;;;;;;10.43;1.83;;;;;;;;;;5019202;28;20050;-91
2023/12/10 13:18:27;;;;;;;16.02;1.98;;;;;;;;;;5020792;28;20084;-91
2023/12/10 13:21:09;;;;;;;9.27;2.08;;;;;;;;;;5019484;28;20042;-91
2023/12/10 13:23:50;;;;;;;14.63;1.77;;;;;;;;;;5013402;28;20402;-90
2023/12/10 13:26:31;;;;;;;12.32;1.70;;;;;;;;;;5015608;28;20038;-91
2023/12/10 13:29:06;;;;;;;16.35;1.80;;;;;;;;;;5000137;28;20052;-90
2023/12/10 13:31:42;;;;;;;21.23;3.10;;;;;;;;;;5012465;28;20384;-92
2023/12/10 13:34:23;;;;;;;16.83;1.60;;;;;;;;;;5016606;28;20042;-91
2023/12/10 13:37:08;;;;;;;16.35;2.03;;;;;;;;;;5012107;28;20088;-91
2023/12/10 13:39:48;;;;;;;15.45;2.25;;;;;;;;;;5012570;28;20051;-92
2023/12/10 13:42:31;;;;;;;23.48;2.35;;;;;;;;;;5012282;28;20051;-93
2023/12/10 13:45:12;;;;;;;17.20;2.22;;;;;;;;;;5009952;28;20072;-91
2023/12/10 13:47:53;;;;;;;23.45;2.50;;;;;;;;;;5011011;28;20060;-92
2023/12/10 13:50:26;;;;;;;12.38;1.83;;;;;;;;;;4997709;28;20073;-91
2023/12/10 13:53:08;;;;;;;22.05;2.50;;;;;;;;;;5013131;28;20050;-91
2023/12/10 13:55:48;;;;;;;29.17;2.40;;;;;;;;;;5012211;28;20422;-91
2023/12/10 13:58:17;;;;;;;28.95;1.95;;;;;;;;;;5013204;28;20140;-91
2023/12/10 14:00:46;;;;;;;30.58;2.70;;;;;;;;;;5012991;28;20167;-91
2023/12/10 14:03:30;;;;;;;13.90;1.98;;;;;;;;;;5008346;28;20050;-91
2023/12/10 14:06:08;;;;;;;22.58;3.20;;;;;;;;;;5011446;28;20054;-91
2023/12/10 14:08:39;;;;;;;12.60;2.90;;;;;;;;;;4997278;28;20144;-91
2023/12/10 14:11:20;;;;;;;13.55;2.70;;;;;;;;;;5011754;28;20049;-91
2023/12/10 14:14:01;;;;;;;23.02;2.72;;;;;;;;;;5010875;28;20053;-91
2023/12/10 14:16:42;;;;;;;20.13;3.45;;;;;;;;;;5013636;28;20134;-91
2023/12/10 14:19:26;;;;;;;17.00;2.08;;;;;;;;;;5014934;28;20114;-92
2023/12/10 14:22:07;;;;;;;18.63;3.28;;;;;;;;;;5016174;28;20057;-92
2023/12/10 14:24:50;;;;;;;22.10;2.97;;;;;;;;;;5014403;28;20038;-92
2023/12/10 14:27:31;;;;;;;14.27;2.35;;;;;;;;;;5012161;28;20460;-91
2023/12/10 14:30:17;;;;;;;22.70;2.22;;;;;;;;;;5009389;28;20093;-91
2023/12/10 14:33:01;;;;;;;14.50;2.03;;;;;;;;;;5011093;28;20061;-91
2023/12/10 14:35:45;;;;;;;18.77;2.58;;;;;;;;;;5010785;28;20073;-91
2023/12/10 14:38:29;;;;;;;17.13;2.30;;;;;;;;;;4998208;28;20054;-91
2023/12/10 14:41:13;;;;;;;13.25;1.88;;;;;;;;;;5009300;28;20171;-91
2023/12/10 14:43:52;;;;;;;17.42;2.20;;;;;;;;;;5013730;28;20050;-91
2023/12/10 14:46:33;;;;;;;21.58;3.08;;;;;;;;;;5013539;28;20066;-91
2023/12/10 14:49:05;;;;;;;13.00;2.13;;;;;;;;;;5003486;28;20058;-91
2023/12/10 14:51:49;;;;;;;20.13;3.13;;;;;;;;;;5013401;28;20057;-91
2023/12/10 14:54:27;;;;;;;23.15;2.42;;;;;;;;;;5012323;28;20106;-91
2023/12/10 14:57:09;;;;;;;18.27;2.40;;;;;;;;;;5013154;28;20086;-88
2023/12/10 14:59:53;;;;;;;18.05;2.55;;;;;;;;;;5016129;28;20049;-90
2023/12/10 15:02:34;;;;;;;17.88;2.22;;;;;;;;;;5010392;28;20453;-90
2023/12/10 15:05:23;;;;;;;10.45;1.90;;;;;;;;;;5000562;28;20076;-89
2023/12/10 15:08:37;;;;;;;13.13;1.90;;;;;;;;;;5015712;28;20050;-90
2023/12/10 15:11:22;;;;;;;12.82;3.00;;;;;;;;;;5001835;28;20123;-91
2023/12/10 15:14:07;;;;;;;14.38;1.73;;;;;;;;;;5012121;28;20034;-90
2023/12/10 15:16:49;;;;;;;12.00;1.58;;;;;;;;;;5160607;22;20051;-91
2023/12/10 15:19:42;;;;;;;18.30;3.47;;;;;;;;;;5875434;22;20038;-90
2023/12/10 15:22:46;;;;;;;16.00;3.70;;;;;;;;;;5004939;28;20078;-89
2023/12/10 15:25:34;;;;;;;9.18;2.72;;;;;;;;;;5013828;28;20078;-91
2023/12/10 15:28:25;;;;;;;17.25;2.72;;;;;;;;;;5005707;28;20058;-91
2023/12/10 15:31:18;;;;;;;16.10;1.67;;;;;;;;;;5055527;22;20037;-90
2023/12/10 15:34:00;;;;;;;13.30;2.35;;;;;;;;;;5044496;28;20212;-89
2023/12/10 15:36:47;;;;;;;10.05;1.90;;;;;;;;;;5044080;28;20077;-89
2023/12/10 15:39:30;;;;;;;14.10;3.65;;;;;;;;;;5043652;28;20041;-91
2023/12/10 15:42:13;;;;;;;16.88;2.67;;;;;;;;;;5047628;28;20097;-90
2023/12/10 15:44:57;;;;;;;22.33;2.80;;;;;;;;;;5046800;28;20118;-90
2023/12/10 15:47:41;;;;;;;17.35;2.03;;;;;;;;;;5044679;28;20046;-91
2023/12/10 15:50:31;;;;;;;14.73;1.92;;;;;;;;;;5041125;28;20048;-90
2023/12/10 15:53:24;;;;;;;;;;;;;;;;;;;;;
2023/12/10 15:56:23;;;;;;;10.45;2.75;;;;;;;;;;5039761;28;20060;-89
2023/12/10 15:59:12;;;;;;;14.18;2.15;;;;;;;;;;5038114;28;20215;-90